sensor_id;sensor_type;location;lat;lon;timestamp;temperature;humidity
5846;DHT22;2949;50.778;7.094;2023-08-30T00:00:46;15.10;99.90
5846;DHT22;2949;50.778;7.094;2023-08-30T00:03:12;15.10;99.90
5846;DHT22;2949;50.778;7.094;2023-08-30T00:05:41;15.00;99.90
5846;DHT22;2949;50.778;7.094;2023-08-30T00:08:07;15.00;99.90
5846;DHT22;2949;50.778;7.094;2023-08-30T00:10:33;14.90;99.90
5846;DHT22;2949;50.778;7.094;2023-08-30T00:12:59;14.90;99.90
5846;DHT22;2949;50.778;7.094;2023-08-30T00:15:24;14.80;99.90
5846;DHT22;2949;50.778;7.094;2023-08-30T00:17:50;14.70;99.90
5846;DHT22;2949;50.778;7.094;2023-08-30T00:20:17;14.60;99.90
5846;DHT22;2949;50.778;7.094;2023-08-30T00:22:43;14.60;99.90
5846;DHT22;2949;50.778;7.094;2023-08-30T00:25:08;14.50;99.90
5846;DHT22;2949;50.778;7.094;2023-08-30T00:27:34;14.40;99.90
5846;DHT22;2949;50.778;7.094;2023-08-30T00:30:00;14.40;99.90
5846;DHT22;2949;50.778;7.094;2023-08-30T00:32:25;14.40;99.90
5846;DHT22;2949;50.778;7.094;2023-08-30T00:34:51;14.30;99.90
5846;DHT22;2949;50.778;7.094;2023-08-30T00:37:16;14.30;99.90
5846;DHT22;2949;50.778;7.094;2023-08-30T00:39:42;14.30;99.90
5846;DHT22;2949;50.778;7.094;2023-08-30T00:42:08;14.20;99.90
5846;DHT22;2949;50.778;7.094;2023-08-30T00:44:34;14.20;99.90
5846;DHT22;2949;50.778;7.094;2023-08-30T00:47:01;14.20;99.90
5846;DHT22;2949;50.778;7.094;2023-08-30T00:49:28;14.10;99.90
5846;DHT22;2949;50.778;7.094;2023-08-30T00:51:55;14.20;99.90
5846;DHT22;2949;50.778;7.094;2023-08-30T00:54:20;14.20;99.90
5846;DHT22;2949;50.778;7.094;2023-08-30T00:56:46;14.20;99.90
5846;DHT22;2949;50.778;7.094;2023-08-30T00:59:12;14.10;99.90
5846;DHT22;2949;50.778;7.094;2023-08-30T01:01:38;14.10;99.90
5846;DHT22;2949;50.778;7.094;2023-08-30T01:04:05;14.10;99.90
5846;DHT22;2949;50.778;7.094;2023-08-30T01:06:30;14.20;99.90
5846;DHT22;2949;50.778;7.094;2023-08-30T01:08:56;14.10;99.90
5846;DHT22;2949;50.778;7.094;2023-08-30T01:11:32;14.10;99.90
5846;DHT22;2949;50.778;7.094;2023-08-30T01:14:08;14.20;99.90
5846;DHT22;2949;50.778;7.094;2023-08-30T01:16:35;14.20;99.90
5846;DHT22;2949;50.778;7.094;2023-08-30T01:19:12;14.30;99.90
5846;DHT22;2949;50.778;7.094;2023-08-30T01:22:02;14.30;99.90
5846;DHT22;2949;50.778;7.094;2023-08-30T01:24:40;14.30;99.90
5846;DHT22;2949;50.778;7.094;2023-08-30T01:27:11;14.30;99.90
5846;DHT22;2949;50.778;7.094;2023-08-30T01:29:38;14.30;99.90
5846;DHT22;2949;50.778;7.094;2023-08-30T01:32:07;14.30;99.90
5846;DHT22;2949;50.778;7.094;2023-08-30T01:34:33;14.30;99.90
5846;DHT22;2949;50.778;7.094;2023-08-30T01:36:59;14.30;99.90
5846;DHT22;2949;50.778;7.094;2023-08-30T01:39:26;14.30;99.90
5846;DHT22;2949;50.778;7.094;2023-08-30T01:41:52;14.30;99.90
5846;DHT22;2949;50.778;7.094;2023-08-30T01:44:33;14.30;99.90
5846;DHT22;2949;50.778;7.094;2023-08-30T01:46:59;14.40;99.90
5846;DHT22;2949;50.778;7.094;2023-08-30T01:49:28;14.40;99.90
5846;DHT22;2949;50.778;7.094;2023-08-30T01:51:57;14.50;99.90
5846;DHT22;2949;50.778;7.094;2023-08-30T01:54:23;14.50;99.90
5846;DHT22;2949;50.778;7.094;2023-08-30T01:56:49;14.60;99.90
5846;DHT22;2949;50.778;7.094;2023-08-30T01:59:15;14.60;99.90
5846;DHT22;2949;50.778;7.094;2023-08-30T02:01:40;14.60;99.90
5846;DHT22;2949;50.778;7.094;2023-08-30T02:04:06;14.60;99.90
5846;DHT22;2949;50.778;7.094;2023-08-30T02:06:40;14.60;99.90
5846;DHT22;2949;50.778;7.094;2023-08-30T02:09:40;14.70;99.90
5846;DHT22;2949;50.778;7.094;2023-08-30T02:12:12;14.70;99.90
5846;DHT22;2949;50.778;7.094;2023-08-30T02:14:39;14.70;99.90
5846;DHT22;2949;50.778;7.094;2023-08-30T02:17:06;14.70;99.90
5846;DHT22;2949;50.778;7.094;2023-08-30T02:19:33;14.70;99.90
5846;DHT22;2949;50.778;7.094;2023-08-30T02:21:59;14.70;99.90
5846;DHT22;2949;50.778;7.094;2023-08-30T02:24:24;14.70;99.90
5846;DHT22;2949;50.778;7.094;2023-08-30T02:26:50;14.70;99.90
5846;DHT22;2949;50.778;7.094;2023-08-30T02:29:15;14.70;99.90
5846;DHT22;2949;50.778;7.094;2023-08-30T02:31:41;14.80;99.90
5846;DHT22;2949;50.778;7.094;2023-08-30T02:34:06;14.80;99.90
5846;DHT22;2949;50.778;7.094;2023-08-30T02:36:32;14.80;99.90
5846;DHT22;2949;50.778;7.094;2023-08-30T02:38:57;14.80;99.90
5846;DHT22;2949;50.778;7.094;2023-08-30T02:41:23;14.80;99.90
5846;DHT22;2949;50.778;7.094;2023-08-30T02:43:48;14.70;99.90
5846;DHT22;2949;50.778;7.094;2023-08-30T02:46:14;14.70;99.90
5846;DHT22;2949;50.778;7.094;2023-08-30T02:48:39;14.70;99.90
5846;DHT22;2949;50.778;7.094;2023-08-30T02:51:05;14.70;99.90
5846;DHT22;2949;50.778;7.094;2023-08-30T02:53:30;14.70;99.90
5846;DHT22;2949;50.778;7.094;2023-08-30T02:55:56;14.70;99.90
5846;DHT22;2949;50.778;7.094;2023-08-30T02:58:22;14.70;99.90
5846;DHT22;2949;50.778;7.094;2023-08-30T03:00:47;14.70;99.90
5846;DHT22;2949;50.778;7.094;2023-08-30T03:03:13;14.70;99.90
5846;DHT22;2949;50.778;7.094;2023-08-30T03:05:38;14.70;99.90
5846;DHT22;2949;50.778;7.094;2023-08-30T03:08:04;14.70;99.90
5846;DHT22;2949;50.778;7.094;2023-08-30T03:10:29;14.70;99.90
5846;DHT22;2949;50.778;7.094;2023-08-30T03:12:55;14.60;99.90
5846;DHT22;2949;50.778;7.094;2023-08-30T03:15:21;14.60;99.90
5846;DHT22;2949;50.778;7.094;2023-08-30T03:17:46;14.60;99.90
5846;DHT22;2949;50.778;7.094;2023-08-30T03:20:12;14.50;99.90
5846;DHT22;2949;50.778;7.094;2023-08-30T03:22:37;14.50;99.90
5846;DHT22;2949;50.778;7.094;2023-08-30T03:25:03;14.40;99.90
5846;DHT22;2949;50.778;7.094;2023-08-30T03:27:29;14.40;99.90
5846;DHT22;2949;50.778;7.094;2023-08-30T03:29:55;14.40;99.90
5846;DHT22;2949;50.778;7.094;2023-08-30T03:32:21;14.40;99.90
5846;DHT22;2949;50.778;7.094;2023-08-30T03:34:47;14.40;99.90
5846;DHT22;2949;50.778;7.094;2023-08-30T03:37:14;14.40;99.90
5846;DHT22;2949;50.778;7.094;2023-08-30T03:39:40;14.30;99.90
5846;DHT22;2949;50.778;7.094;2023-08-30T03:42:06;14.20;99.90
5846;DHT22;2949;50.778;7.094;2023-08-30T03:44:31;14.10;99.90
5846;DHT22;2949;50.778;7.094;2023-08-30T03:46:57;14.00;99.90
5846;DHT22;2949;50.778;7.094;2023-08-30T03:49:23;13.90;99.90
5846;DHT22;2949;50.778;7.094;2023-08-30T03:51:49;13.80;99.90
5846;DHT22;2949;50.778;7.094;2023-08-30T03:54:14;13.60;99.90
5846;DHT22;2949;50.778;7.094;2023-08-30T03:56:42;13.60;99.90
5846;DHT22;2949;50.778;7.094;2023-08-30T03:59:08;13.40;99.90
5846;DHT22;2949;50.778;7.094;2023-08-30T04:01:34;13.40;99.90
5846;DHT22;2949;50.778;7.094;2023-08-30T04:03:59;13.30;99.90
5846;DHT22;2949;50.778;7.094;2023-08-30T04:06:25;13.20;99.90
5846;DHT22;2949;50.778;7.094;2023-08-30T04:08:50;13.10;99.90
5846;DHT22;2949;50.778;7.094;2023-08-30T04:11:16;13.10;99.90
5846;DHT22;2949;50.778;7.094;2023-08-30T04:13:42;13.00;99.90
5846;DHT22;2949;50.778;7.094;2023-08-30T04:16:07;13.10;99.90
5846;DHT22;2949;50.778;7.094;2023-08-30T04:18:33;13.10;99.90
5846;DHT22;2949;50.778;7.094;2023-08-30T04:20:58;13.10;99.90
5846;DHT22;2949;50.778;7.094;2023-08-30T04:23:24;13.00;99.90
5846;DHT22;2949;50.778;7.094;2023-08-30T04:25:50;13.00;99.90
5846;DHT22;2949;50.778;7.094;2023-08-30T04:28:15;13.00;99.90
5846;DHT22;2949;50.778;7.094;2023-08-30T04:30:41;13.00;99.90
5846;DHT22;2949;50.778;7.094;2023-08-30T04:33:06;13.00;99.90
5846;DHT22;2949;50.778;7.094;2023-08-30T04:35:32;13.00;99.90
5846;DHT22;2949;50.778;7.094;2023-08-30T04:37:59;13.00;99.90
5846;DHT22;2949;50.778;7.094;2023-08-30T04:40:25;13.00;99.90
5846;DHT22;2949;50.778;7.094;2023-08-30T04:42:50;13.00;99.90
5846;DHT22;2949;50.778;7.094;2023-08-30T04:45:16;13.00;99.90
5846;DHT22;2949;50.778;7.094;2023-08-30T04:47:41;12.90;99.90
5846;DHT22;2949;50.778;7.094;2023-08-30T04:50:09;12.90;99.90
5846;DHT22;2949;50.778;7.094;2023-08-30T04:52:34;12.80;99.90
5846;DHT22;2949;50.778;7.094;2023-08-30T04:55:00;12.80;99.90
5846;DHT22;2949;50.778;7.094;2023-08-30T04:57:26;12.80;99.90
5846;DHT22;2949;50.778;7.094;2023-08-30T04:59:51;12.80;99.90
5846;DHT22;2949;50.778;7.094;2023-08-30T05:02:17;12.80;99.90
5846;DHT22;2949;50.778;7.094;2023-08-30T05:04:42;12.90;99.90
5846;DHT22;2949;50.778;7.094;2023-08-30T05:07:08;12.90;99.90
5846;DHT22;2949;50.778;7.094;2023-08-30T05:09:33;12.90;99.90
5846;DHT22;2949;50.778;7.094;2023-08-30T05:12:00;13.00;99.90
5846;DHT22;2949;50.778;7.094;2023-08-30T05:14:25;13.00;99.90
5846;DHT22;2949;50.778;7.094;2023-08-30T05:16:51;13.10;99.90
5846;DHT22;2949;50.778;7.094;2023-08-30T05:19:17;13.20;99.90
5846;DHT22;2949;50.778;7.094;2023-08-30T05:21:43;13.20;99.90
5846;DHT22;2949;50.778;7.094;2023-08-30T05:24:08;13.30;99.90
5846;DHT22;2949;50.778;7.094;2023-08-30T05:26:35;13.30;99.90
5846;DHT22;2949;50.778;7.094;2023-08-30T05:29:01;13.40;99.90
5846;DHT22;2949;50.778;7.094;2023-08-30T05:31:27;13.50;99.90
5846;DHT22;2949;50.778;7.094;2023-08-30T05:33:52;13.50;99.90
5846;DHT22;2949;50.778;7.094;2023-08-30T05:36:18;13.60;99.90
5846;DHT22;2949;50.778;7.094;2023-08-30T05:38:43;13.70;99.90
5846;DHT22;2949;50.778;7.094;2023-08-30T05:41:09;13.70;99.90
5846;DHT22;2949;50.778;7.094;2023-08-30T05:43:34;13.90;99.90
5846;DHT22;2949;50.778;7.094;2023-08-30T05:46:01;14.00;99.90
5846;DHT22;2949;50.778;7.094;2023-08-30T05:48:28;14.10;99.90
5846;DHT22;2949;50.778;7.094;2023-08-30T05:50:54;14.10;99.90
5846;DHT22;2949;50.778;7.094;2023-08-30T05:53:19;14.30;99.90
5846;DHT22;2949;50.778;7.094;2023-08-30T05:55:45;14.30;99.90
5846;DHT22;2949;50.778;7.094;2023-08-30T05:58:10;14.40;99.90
5846;DHT22;2949;50.778;7.094;2023-08-30T06:00:36;14.50;99.90
5846;DHT22;2949;50.778;7.094;2023-08-30T06:03:02;14.60;99.90
5846;DHT22;2949;50.778;7.094;2023-08-30T06:05:28;14.70;99.90
5846;DHT22;2949;50.778;7.094;2023-08-30T06:07:53;14.80;99.90
5846;DHT22;2949;50.778;7.094;2023-08-30T06:10:20;14.90;99.90
5846;DHT22;2949;50.778;7.094;2023-08-30T06:12:46;15.00;99.90
5846;DHT22;2949;50.778;7.094;2023-08-30T06:15:11;15.10;99.90
5846;DHT22;2949;50.778;7.094;2023-08-30T06:17:37;15.20;99.90
5846;DHT22;2949;50.778;7.094;2023-08-30T06:20:03;15.30;99.90
5846;DHT22;2949;50.778;7.094;2023-08-30T06:22:28;15.30;99.90
5846;DHT22;2949;50.778;7.094;2023-08-30T06:24:54;15.50;99.90
5846;DHT22;2949;50.778;7.094;2023-08-30T06:27:20;15.50;99.90
5846;DHT22;2949;50.778;7.094;2023-08-30T06:29:45;15.60;99.90
5846;DHT22;2949;50.778;7.094;2023-08-30T06:32:11;15.60;99.90
5846;DHT22;2949;50.778;7.094;2023-08-30T06:34:36;15.80;99.90
5846;DHT22;2949;50.778;7.094;2023-08-30T06:37:02;15.80;99.90
5846;DHT22;2949;50.778;7.094;2023-08-30T06:39:33;15.90;99.90
5846;DHT22;2949;50.778;7.094;2023-08-30T06:41:59;16.30;99.90
5846;DHT22;2949;50.778;7.094;2023-08-30T06:44:24;17.20;99.90
5846;DHT22;2949;50.778;7.094;2023-08-30T06:46:50;18.30;99.90
5846;DHT22;2949;50.778;7.094;2023-08-30T06:49:16;19.30;99.90
5846;DHT22;2949;50.778;7.094;2023-08-30T06:51:43;20.30;99.90
5846;DHT22;2949;50.778;7.094;2023-08-30T06:54:08;21.10;99.90
5846;DHT22;2949;50.778;7.094;2023-08-30T06:56:33;22.00;99.90
5846;DHT22;2949;50.778;7.094;2023-08-30T06:58:59;23.10;99.90
5846;DHT22;2949;50.778;7.094;2023-08-30T07:01:24;23.40;99.90
5846;DHT22;2949;50.778;7.094;2023-08-30T07:03:50;24.10;99.90
5846;DHT22;2949;50.778;7.094;2023-08-30T07:06:16;24.70;99.90
5846;DHT22;2949;50.778;7.094;2023-08-30T07:08:41;25.30;99.90
5846;DHT22;2949;50.778;7.094;2023-08-30T07:11:07;25.90;99.90
5846;DHT22;2949;50.778;7.094;2023-08-30T07:13:32;26.70;99.90
5846;DHT22;2949;50.778;7.094;2023-08-30T07:15:58;27.30;99.20
5846;DHT22;2949;50.778;7.094;2023-08-30T07:18:23;27.70;96.90
5846;DHT22;2949;50.778;7.094;2023-08-30T07:20:49;28.00;95.00
5846;DHT22;2949;50.778;7.094;2023-08-30T07:23:14;28.40;92.60
5846;DHT22;2949;50.778;7.094;2023-08-30T07:25:40;28.60;91.50
5846;DHT22;2949;50.778;7.094;2023-08-30T07:28:06;28.30;91.60
5846;DHT22;2949;50.778;7.094;2023-08-30T07:30:31;28.20;90.90
5846;DHT22;2949;50.778;7.094;2023-08-30T07:32:57;28.60;88.70
5846;DHT22;2949;50.778;7.094;2023-08-30T07:35:23;29.00;86.00
5846;DHT22;2949;50.778;7.094;2023-08-30T07:37:49;29.20;84.60
5846;DHT22;2949;50.778;7.094;2023-08-30T07:40:14;29.50;85.50
5846;DHT22;2949;50.778;7.094;2023-08-30T07:42:40;30.00;79.60
5846;DHT22;2949;50.778;7.094;2023-08-30T07:45:06;29.90;77.60
5846;DHT22;2949;50.778;7.094;2023-08-30T07:47:31;29.50;76.00
5846;DHT22;2949;50.778;7.094;2023-08-30T07:49:57;28.80;79.80
5846;DHT22;2949;50.778;7.094;2023-08-30T07:52:22;29.20;77.70
5846;DHT22;2949;50.778;7.094;2023-08-30T07:54:48;29.70;77.00
5846;DHT22;2949;50.778;7.094;2023-08-30T07:57:14;29.70;74.90
5846;DHT22;2949;50.778;7.094;2023-08-30T14:42:30;30.10;75.80
5846;DHT22;2949;50.778;7.094;2023-08-30T14:44:58;16.50;99.90
5846;DHT22;2949;50.778;7.094;2023-08-30T14:47:24;16.10;99.90
5846;DHT22;2949;50.778;7.094;2023-08-30T14:49:49;15.90;99.90
5846;DHT22;2949;50.778;7.094;2023-08-30T14:52:15;15.80;99.90
5846;DHT22;2949;50.778;7.094;2023-08-30T14:54:42;15.80;99.90
5846;DHT22;2949;50.778;7.094;2023-08-30T14:57:08;15.80;99.90
5846;DHT22;2949;50.778;7.094;2023-08-30T14:59:33;15.70;99.90
5846;DHT22;2949;50.778;7.094;2023-08-30T15:01:59;15.70;99.90
5846;DHT22;2949;50.778;7.094;2023-08-30T15:04:24;15.70;99.90
5846;DHT22;2949;50.778;7.094;2023-08-30T15:06:50;15.70;99.90
5846;DHT22;2949;50.778;7.094;2023-08-30T15:09:17;15.70;99.90
5846;DHT22;2949;50.778;7.094;2023-08-30T15:11:43;15.70;99.90
5846;DHT22;2949;50.778;7.094;2023-08-30T15:14:08;15.70;99.90
5846;DHT22;2949;50.778;7.094;2023-08-30T15:16:34;15.70;99.90
5846;DHT22;2949;50.778;7.094;2023-08-30T15:19:00;15.70;99.90
5846;DHT22;2949;50.778;7.094;2023-08-30T15:21:25;15.80;99.90
5846;DHT22;2949;50.778;7.094;2023-08-30T15:23:51;15.90;99.90
5846;DHT22;2949;50.778;7.094;2023-08-30T15:26:16;16.10;99.90
5846;DHT22;2949;50.778;7.094;2023-08-30T15:28:43;16.30;99.90
5846;DHT22;2949;50.778;7.094;2023-08-30T15:31:12;16.40;99.90
5846;DHT22;2949;50.778;7.094;2023-08-30T15:33:37;16.50;99.90
5846;DHT22;2949;50.778;7.094;2023-08-30T15:36:03;16.50;99.90
5846;DHT22;2949;50.778;7.094;2023-08-30T15:38:29;16.70;99.90
5846;DHT22;2949;50.778;7.094;2023-08-30T15:40:54;17.20;99.90
5846;DHT22;2949;50.778;7.094;2023-08-30T15:43:23;17.70;99.90
5846;DHT22;2949;50.778;7.094;2023-08-30T15:45:48;18.20;99.90
5846;DHT22;2949;50.778;7.094;2023-08-30T15:48:15;18.00;99.90
5846;DHT22;2949;50.778;7.094;2023-08-30T15:50:41;17.80;99.90
5846;DHT22;2949;50.778;7.094;2023-08-30T15:53:07;17.40;99.90
5846;DHT22;2949;50.778;7.094;2023-08-30T15:55:33;17.20;99.90
5846;DHT22;2949;50.778;7.094;2023-08-30T15:57:58;17.10;99.90
5846;DHT22;2949;50.778;7.094;2023-08-30T16:00:24;17.00;99.90
5846;DHT22;2949;50.778;7.094;2023-08-30T16:02:50;17.10;99.90
5846;DHT22;2949;50.778;7.094;2023-08-30T16:05:19;17.30;99.90
5846;DHT22;2949;50.778;7.094;2023-08-30T16:07:45;17.30;99.90
5846;DHT22;2949;50.778;7.094;2023-08-30T16:10:13;17.00;99.90
5846;DHT22;2949;50.778;7.094;2023-08-30T16:12:38;16.80;99.90
5846;DHT22;2949;50.778;7.094;2023-08-30T16:15:04;16.70;99.90
5846;DHT22;2949;50.778;7.094;2023-08-30T16:17:30;16.50;99.90
5846;DHT22;2949;50.778;7.094;2023-08-30T16:19:56;16.60;99.90
5846;DHT22;2949;50.778;7.094;2023-08-30T16:22:22;16.70;99.90
5846;DHT22;2949;50.778;7.094;2023-08-30T16:24:47;16.70;99.90
5846;DHT22;2949;50.778;7.094;2023-08-30T16:27:13;16.80;99.90
5846;DHT22;2949;50.778;7.094;2023-08-30T16:29:38;16.70;99.90
5846;DHT22;2949;50.778;7.094;2023-08-30T16:32:04;16.60;99.90
5846;DHT22;2949;50.778;7.094;2023-08-30T16:34:30;16.50;99.90
5846;DHT22;2949;50.778;7.094;2023-08-30T16:36:56;16.50;99.90
5846;DHT22;2949;50.778;7.094;2023-08-30T16:39:21;16.40;99.90
5846;DHT22;2949;50.778;7.094;2023-08-30T16:41:46;16.50;99.90
5846;DHT22;2949;50.778;7.094;2023-08-30T16:44:13;16.40;99.90
5846;DHT22;2949;50.778;7.094;2023-08-30T16:46:39;16.30;99.90
5846;DHT22;2949;50.778;7.094;2023-08-30T16:49:06;16.30;99.90
5846;DHT22;2949;50.778;7.094;2023-08-30T16:51:32;16.20;99.90
5846;DHT22;2949;50.778;7.094;2023-08-30T16:53:57;16.20;99.90
5846;DHT22;2949;50.778;7.094;2023-08-30T16:56:23;16.10;99.90
5846;DHT22;2949;50.778;7.094;2023-08-30T16:58:48;16.20;99.90
5846;DHT22;2949;50.778;7.094;2023-08-30T17:01:14;16.10;99.90
5846;DHT22;2949;50.778;7.094;2023-08-30T17:03:39;16.00;99.90
5846;DHT22;2949;50.778;7.094;2023-08-30T17:06:05;16.00;99.90
5846;DHT22;2949;50.778;7.094;2023-08-30T17:08:31;16.00;99.90
5846;DHT22;2949;50.778;7.094;2023-08-30T17:11:06;16.00;99.90
5846;DHT22;2949;50.778;7.094;2023-08-30T17:13:33;16.00;99.90
5846;DHT22;2949;50.778;7.094;2023-08-30T17:15:59;15.90;99.90
5846;DHT22;2949;50.778;7.094;2023-08-30T17:18:29;15.90;99.90
5846;DHT22;2949;50.778;7.094;2023-08-30T17:20:56;16.00;99.90
5846;DHT22;2949;50.778;7.094;2023-08-30T17:23:22;15.90;99.90
5846;DHT22;2949;50.778;7.094;2023-08-30T17:25:51;15.90;99.90
5846;DHT22;2949;50.778;7.094;2023-08-30T17:28:18;15.90;99.90
5846;DHT22;2949;50.778;7.094;2023-08-30T17:30:43;15.90;99.90
5846;DHT22;2949;50.778;7.094;2023-08-30T17:33:09;15.80;99.90
5846;DHT22;2949;50.778;7.094;2023-08-30T17:35:35;15.80;99.90
5846;DHT22;2949;50.778;7.094;2023-08-30T17:38:01;15.80;99.90
5846;DHT22;2949;50.778;7.094;2023-08-30T17:40:33;15.70;99.90
5846;DHT22;2949;50.778;7.094;2023-08-30T17:43:00;15.70;99.90
5846;DHT22;2949;50.778;7.094;2023-08-30T17:45:31;15.60;99.90
5846;DHT22;2949;50.778;7.094;2023-08-30T17:47:59;15.60;99.90
5846;DHT22;2949;50.778;7.094;2023-08-30T17:50:26;15.60;99.90
5846;DHT22;2949;50.778;7.094;2023-08-30T17:52:52;15.60;99.90
5846;DHT22;2949;50.778;7.094;2023-08-30T17:55:17;15.50;99.90
5846;DHT22;2949;50.778;7.094;2023-08-30T17:57:43;15.50;99.90
5846;DHT22;2949;50.778;7.094;2023-08-30T18:00:10;15.50;99.90
5846;DHT22;2949;50.778;7.094;2023-08-30T18:02:39;15.40;99.90
5846;DHT22;2949;50.778;7.094;2023-08-30T18:05:04;15.50;99.90
5846;DHT22;2949;50.778;7.094;2023-08-30T18:07:35;15.50;99.90
5846;DHT22;2949;50.778;7.094;2023-08-30T18:10:00;15.50;99.90
5846;DHT22;2949;50.778;7.094;2023-08-30T18:12:27;15.40;99.90
5846;DHT22;2949;50.778;7.094;2023-08-30T18:14:53;15.40;99.90
5846;DHT22;2949;50.778;7.094;2023-08-30T18:17:19;15.30;99.90
5846;DHT22;2949;50.778;7.094;2023-08-30T18:19:47;15.40;99.90
5846;DHT22;2949;50.778;7.094;2023-08-30T18:22:14;15.30;99.90
5846;DHT22;2949;50.778;7.094;2023-08-30T18:24:39;15.30;99.90
5846;DHT22;2949;50.778;7.094;2023-08-30T18:27:07;15.30;99.90
5846;DHT22;2949;50.778;7.094;2023-08-30T18:29:32;15.30;99.90
5846;DHT22;2949;50.778;7.094;2023-08-30T18:31:58;15.20;99.90
5846;DHT22;2949;50.778;7.094;2023-08-30T18:34:24;15.20;99.90
5846;DHT22;2949;50.778;7.094;2023-08-30T18:36:50;15.10;99.90
5846;DHT22;2949;50.778;7.094;2023-08-30T18:39:16;15.10;99.90
5846;DHT22;2949;50.778;7.094;2023-08-30T18:41:42;15.00;99.90
5846;DHT22;2949;50.778;7.094;2023-08-30T18:44:08;14.90;99.90
5846;DHT22;2949;50.778;7.094;2023-08-30T18:46:34;14.80;99.90
5846;DHT22;2949;50.778;7.094;2023-08-30T18:48:59;14.60;99.90
5846;DHT22;2949;50.778;7.094;2023-08-30T18:51:25;14.40;99.90
5846;DHT22;2949;50.778;7.094;2023-08-30T18:53:51;14.30;99.90
5846;DHT22;2949;50.778;7.094;2023-08-30T18:56:16;14.20;99.90
5846;DHT22;2949;50.778;7.094;2023-08-30T18:58:42;14.20;99.90
5846;DHT22;2949;50.778;7.094;2023-08-30T19:01:10;14.10;99.90
5846;DHT22;2949;50.778;7.094;2023-08-30T19:03:37;14.10;99.90
5846;DHT22;2949;50.778;7.094;2023-08-30T19:06:03;14.10;99.90
5846;DHT22;2949;50.778;7.094;2023-08-30T19:08:30;14.00;99.90
5846;DHT22;2949;50.778;7.094;2023-08-30T19:10:56;13.90;99.90
5846;DHT22;2949;50.778;7.094;2023-08-30T19:13:21;13.90;99.90
5846;DHT22;2949;50.778;7.094;2023-08-30T19:15:47;13.80;99.90
5846;DHT22;2949;50.778;7.094;2023-08-30T19:18:13;13.80;99.90
5846;DHT22;2949;50.778;7.094;2023-08-30T19:20:38;13.70;99.90
5846;DHT22;2949;50.778;7.094;2023-08-30T19:23:04;13.60;99.90
5846;DHT22;2949;50.778;7.094;2023-08-30T19:25:30;13.60;99.90
5846;DHT22;2949;50.778;7.094;2023-08-30T19:27:56;13.50;99.90
5846;DHT22;2949;50.778;7.094;2023-08-30T19:30:21;13.50;99.90
5846;DHT22;2949;50.778;7.094;2023-08-30T19:32:47;13.40;99.90
5846;DHT22;2949;50.778;7.094;2023-08-30T19:35:13;13.30;99.90
5846;DHT22;2949;50.778;7.094;2023-08-30T19:37:38;13.30;99.90
5846;DHT22;2949;50.778;7.094;2023-08-30T19:40:07;13.20;99.90
5846;DHT22;2949;50.778;7.094;2023-08-30T19:42:33;13.20;99.90
5846;DHT22;2949;50.778;7.094;2023-08-30T19:44:59;13.10;99.90
5846;DHT22;2949;50.778;7.094;2023-08-30T19:47:27;13.10;99.90
5846;DHT22;2949;50.778;7.094;2023-08-30T19:49:53;13.10;99.90
5846;DHT22;2949;50.778;7.094;2023-08-30T19:52:18;13.10;99.90
5846;DHT22;2949;50.778;7.094;2023-08-30T19:54:48;13.10;99.90
5846;DHT22;2949;50.778;7.094;2023-08-30T19:57:15;13.10;99.90
5846;DHT22;2949;50.778;7.094;2023-08-30T19:59:40;13.10;99.90
5846;DHT22;2949;50.778;7.094;2023-08-30T20:02:06;13.00;99.90
5846;DHT22;2949;50.778;7.094;2023-08-30T20:04:32;12.90;99.90
5846;DHT22;2949;50.778;7.094;2023-08-30T20:06:58;12.90;99.90
5846;DHT22;2949;50.778;7.094;2023-08-30T20:09:23;12.80;99.90
5846;DHT22;2949;50.778;7.094;2023-08-30T20:11:49;12.80;99.90
5846;DHT22;2949;50.778;7.094;2023-08-30T20:14:14;12.70;99.90
5846;DHT22;2949;50.778;7.094;2023-08-30T20:16:45;12.70;99.90
5846;DHT22;2949;50.778;7.094;2023-08-30T20:19:17;12.70;99.90
5846;DHT22;2949;50.778;7.094;2023-08-30T20:21:44;12.70;99.90
5846;DHT22;2949;50.778;7.094;2023-08-30T20:24:13;12.70;99.90
5846;DHT22;2949;50.778;7.094;2023-08-30T20:26:39;12.80;99.90
5846;DHT22;2949;50.778;7.094;2023-08-30T20:29:05;12.90;99.90
5846;DHT22;2949;50.778;7.094;2023-08-30T20:31:31;12.90;99.90
5846;DHT22;2949;50.778;7.094;2023-08-30T20:33:57;13.00;99.90
5846;DHT22;2949;50.778;7.094;2023-08-30T20:36:23;13.00;99.90
5846;DHT22;2949;50.778;7.094;2023-08-30T20:38:49;13.00;99.90
5846;DHT22;2949;50.778;7.094;2023-08-30T20:41:15;13.00;99.90
5846;DHT22;2949;50.778;7.094;2023-08-30T20:43:41;13.00;99.90
5846;DHT22;2949;50.778;7.094;2023-08-30T20:46:06;13.00;99.90
5846;DHT22;2949;50.778;7.094;2023-08-30T20:48:32;12.90;99.90
5846;DHT22;2949;50.778;7.094;2023-08-30T20:51:01;12.90;99.90
5846;DHT22;2949;50.778;7.094;2023-08-30T20:53:37;12.90;99.90
5846;DHT22;2949;50.778;7.094;2023-08-30T20:56:06;12.80;99.90
5846;DHT22;2949;50.778;7.094;2023-08-30T20:58:33;12.70;99.90
5846;DHT22;2949;50.778;7.094;2023-08-30T21:00:59;12.70;99.90
5846;DHT22;2949;50.778;7.094;2023-08-30T21:03:25;12.70;99.90
5846;DHT22;2949;50.778;7.094;2023-08-30T21:05:51;12.70;99.90
5846;DHT22;2949;50.778;7.094;2023-08-30T21:08:20;12.60;99.90
5846;DHT22;2949;50.778;7.094;2023-08-30T21:10:47;12.60;99.90
5846;DHT22;2949;50.778;7.094;2023-08-30T21:13:12;12.60;99.90
5846;DHT22;2949;50.778;7.094;2023-08-30T21:15:38;12.50;99.90
5846;DHT22;2949;50.778;7.094;2023-08-30T21:18:03;12.50;99.90
5846;DHT22;2949;50.778;7.094;2023-08-30T21:20:29;12.50;99.90
5846;DHT22;2949;50.778;7.094;2023-08-30T21:22:55;12.40;99.90
5846;DHT22;2949;50.778;7.094;2023-08-30T21:25:22;12.40;99.90
5846;DHT22;2949;50.778;7.094;2023-08-30T21:27:49;12.40;99.90
5846;DHT22;2949;50.778;7.094;2023-08-30T21:30:15;12.30;99.90
5846;DHT22;2949;50.778;7.094;2023-08-30T21:32:41;12.40;99.90
5846;DHT22;2949;50.778;7.094;2023-08-30T21:35:08;12.40;99.90
5846;DHT22;2949;50.778;7.094;2023-08-30T21:37:34;12.40;99.90
5846;DHT22;2949;50.778;7.094;2023-08-30T21:39:59;12.50;99.90
5846;DHT22;2949;50.778;7.094;2023-08-30T21:42:25;12.40;99.90
5846;DHT22;2949;50.778;7.094;2023-08-30T21:44:51;12.40;99.90
5846;DHT22;2949;50.778;7.094;2023-08-30T21:47:16;12.40;99.90
5846;DHT22;2949;50.778;7.094;2023-08-30T21:49:42;12.30;99.90
5846;DHT22;2949;50.778;7.094;2023-08-30T21:52:07;12.30;99.90
5846;DHT22;2949;50.778;7.094;2023-08-30T21:54:33;12.30;99.90
5846;DHT22;2949;50.778;7.094;2023-08-30T21:56:58;12.30;99.90
5846;DHT22;2949;50.778;7.094;2023-08-30T21:59:24;12.30;99.90
5846;DHT22;2949;50.778;7.094;2023-08-30T22:01:49;12.30;99.90
5846;DHT22;2949;50.778;7.094;2023-08-30T22:04:15;12.20;99.90
5846;DHT22;2949;50.778;7.094;2023-08-30T22:06:41;12.20;99.90
5846;DHT22;2949;50.778;7.094;2023-08-30T22:09:07;12.20;99.90
5846;DHT22;2949;50.778;7.094;2023-08-30T22:11:35;12.20;99.90
5846;DHT22;2949;50.778;7.094;2023-08-30T22:14:04;12.20;99.90
5846;DHT22;2949;50.778;7.094;2023-08-30T22:16:35;12.20;99.90
5846;DHT22;2949;50.778;7.094;2023-08-30T22:19:00;12.20;99.90
5846;DHT22;2949;50.778;7.094;2023-08-30T22:21:27;12.20;99.90
5846;DHT22;2949;50.778;7.094;2023-08-30T22:23:52;12.20;99.90
5846;DHT22;2949;50.778;7.094;2023-08-30T22:26:19;12.20;99.90
5846;DHT22;2949;50.778;7.094;2023-08-30T22:28:46;12.20;99.90
5846;DHT22;2949;50.778;7.094;2023-08-30T22:31:11;12.30;99.90
5846;DHT22;2949;50.778;7.094;2023-08-30T22:33:37;12.30;99.90
5846;DHT22;2949;50.778;7.094;2023-08-30T22:36:05;12.30;99.90
5846;DHT22;2949;50.778;7.094;2023-08-30T22:38:33;12.30;99.90